Time;durP1;ratioP1;P1;durP2;ratioP2;P2;SDS_P1;SDS_P2;PMS_P1;PMS_P2;Temp;Humidity;BMP_temperature;BMP_pressure;BME280_temperature;BME280_humidity;BME280_pressure;Samples;Min_cycle;Max_cycle;Signal;HPM_P1;HPM_P2
2023/06/20 08:03:53;;;;;;;;;;;;;;;7.94;100.00;99237.97;6094516;23;20349;-84
2023/06/20 08:06:18;;;;;;;;;;;;;;;7.84;100.00;99243.69;6092985;23;19956;-84
2023/06/20 08:08:43;;;;;;;;;;;;;;;19.05;100.00;99242.56;6093989;23;19964;-84
2023/06/20 08:11:09;;;;;;;;;;;;;;;14.62;100.00;99215.13;6093573;23;20025;-81
2023/06/20 08:13:34;;;;;;;;;;;;;;;10.15;100.00;99238.66;6093300;23;19961;-80
2023/06/20 08:15:59;;;;;;;;;;;;;;;9.36;100.00;99242.41;6092048;23;19913;-81
2023/06/20 08:18:24;;;;;;;;;;;;;;;9.15;100.00;99236.34;6093388;23;20353;-80
2023/06/20 08:20:50;;;;;;;;;;;;;;;8.89;100.00;99243.66;6092883;23;20229;-81
2023/06/20 08:23:25;;;;;;;;;;;;;;;20.44;100.00;99232.91;6093658;23;19917;-81
2023/06/20 08:25:51;;;;;;;;;;;;;;;21.06;100.00;99193.00;6093627;23;19917;-81
2023/06/20 08:28:19;;;;;;;;;;;;;;;12.17;100.00;99219.88;6093604;23;19945;-82
2023/06/20 08:30:44;;;;;;;;;;;;;;;10.34;100.00;99228.88;6109126;23;20384;-82
2023/06/20 08:33:10;;;;;;;;;;;;;;;9.67;100.00;99240.09;6122611;23;19916;-86
2023/06/20 08:35:38;;;;;;;;;;;;;;;9.39;100.00;99236.97;6122922;23;19916;-83
2023/06/20 08:38:03;;;;;;;;;;;;;;;9.20;100.00;99230.84;6122928;23;19962;-84
2023/06/20 08:40:30;;;;;;;;;;;;;;;9.06;100.00;99240.25;6124553;23;19913;-83
2023/06/20 08:42:56;;;;;;;;;;;;;;;9.01;100.00;99234.31;6124438;23;19951;-81
2023/06/20 08:45:21;;;;;;;;;;;;;;;8.94;100.00;99235.53;6126291;23;20337;-81
2023/06/20 08:47:47;;;;;;;;;;;;;;;8.89;100.00;99232.25;6124104;23;19913;-83
2023/06/20 08:50:12;;;;;;;;;;;;;;;8.84;100.00;99232.44;6125577;23;19999;-84
2023/06/20 08:52:59;;;;;;;;;;;;;;;8.78;100.00;99235.34;6124152;23;20313;-85
2023/06/20 08:55:25;;;;;;;;;;;;;;;8.68;100.00;99229.63;6124267;23;19917;-82
2023/06/20 08:57:51;;;;;;;;;;;;;;;8.71;100.00;99225.97;6125162;23;19921;-82
2023/06/20 09:00:23;;;;;;;;;;;;;;;8.70;100.00;99233.03;6126508;23;20003;-83
2023/06/20 09:02:51;;;;;;;;;;;;;;;8.72;100.00;99232.97;6124666;23;19979;-84
2023/06/20 09:05:17;;;;;;;;;;;;;;;8.64;100.00;99233.31;6124845;23;19912;-82
2023/06/20 09:07:43;;;;;;;;;;;;;;;8.68;100.00;99226.09;6124959;23;19924;-82
2023/06/20 09:10:09;;;;;;;;;;;;;;;8.65;100.00;99224.47;6126543;23;19935;-82
2023/06/20 09:12:47;;;;;;;;;;;;;;;8.64;100.00;99232.47;6126373;23;19935;-82
2023/06/20 09:15:17;;;;;;;;;;;;;;;8.57;100.00;99226.59;6126496;23;20245;-82
2023/06/20 09:17:43;;;;;;;;;;;;;;;8.58;100.00;99227.44;6125261;23;19924;-82
2023/06/20 09:20:12;;;;;;;;;;;;;;;8.59;100.00;99222.09;6126455;23;19913;-83
2023/06/20 09:22:41;;;;;;;;;;;;;;;8.56;100.00;99218.75;6126399;23;19913;-83
2023/06/20 09:25:07;;;;;;;;;;;;;;;8.60;100.00;99228.22;6126241;23;19913;-84
2023/06/20 09:27:34;;;;;;;;;;;;;;;8.57;100.00;99231.88;6125232;23;19950;-83
2023/06/20 09:30:00;;;;;;;;;;;;;;;8.58;100.00;99232.72;6126382;23;20000;-83
2023/06/20 09:32:26;;;;;;;;;;;;;;;8.62;100.00;99234.31;6124813;23;20170;-82
2023/06/20 09:34:51;;;;;;;;;;;;;;;8.55;100.00;99225.78;6126794;23;20265;-83
2023/06/20 09:37:17;;;;;;;;;;;;;;;8.52;100.00;99226.78;6126446;23;20314;-83
2023/06/20 09:39:42;;;;;;;;;;;;;;;8.62;100.00;99223.75;6126299;23;19944;-83
2023/06/20 09:42:12;;;;;;;;;;;;;;;8.58;100.00;99228.28;6126247;23;20265;-83
2023/06/20 09:44:37;;;;;;;;;;;;;;;8.54;100.00;99211.72;6126326;23;19996;-83
2023/06/20 09:47:02;;;;;;;;;;;;;;;8.58;100.00;99217.72;6099046;23;20289;-82
2023/06/20 09:49:30;;;;;;;;;;;;;;;8.58;100.00;99214.25;6126765;23;19913;-84
2023/06/20 09:52:01;;;;;;;;;;;;;;;8.56;100.00;99205.53;6125915;23;19929;-82
2023/06/20 09:54:35;;;;;;;;;;;;;;;8.57;100.00;99208.09;6126238;23;19987;-84
2023/06/20 09:57:04;;;;;;;;;;;;;;;8.54;100.00;99211.72;6126273;23;19913;-84
2023/06/20 09:59:31;;;;;;;;;;;;;;;8.47;100.00;99206.78;6126180;23;19920;-84
2023/06/20 10:01:58;;;;;;;;;;;;;;;8.55;100.00;99202.00;6124371;23;19955;-84
2023/06/20 10:04:24;;;;;;;;;;;;;;;8.51;100.00;99201.28;6126188;23;19916;-84
2023/06/20 10:06:52;;;;;;;;;;;;;;;8.60;100.00;99204.47;6100411;23;19982;-84
2023/06/20 10:09:17;;;;;;;;;;;;;;;8.46;100.00;99202.44;6126046;23;20293;-84
2023/06/20 10:11:43;;;;;;;;;;;;;;;8.42;100.00;99206.94;6126011;23;19920;-87
2023/06/20 10:14:09;;;;;;;;;;;;;;;8.48;100.00;99204.06;6125977;23;20249;-84
2023/06/20 10:16:34;;;;;;;;;;;;;;;8.45;100.00;99204.19;6098906;23;20282;-85
2023/06/20 10:19:20;;;;;;;;;;;;;;;8.57;100.00;99204.59;6126338;23;19941;-84
2023/06/20 10:21:57;;;;;;;;;;;;;;;8.58;100.00;99201.88;6125378;23;19917;-84
2023/06/20 10:24:24;;;;;;;;;;;;;;;8.58;100.00;99185.19;6126075;23;19917;-84
2023/06/20 10:26:51;;;;;;;;;;;;;;;8.55;100.00;99191.44;6125926;23;19988;-86
2023/06/20 10:29:16;;;;;;;;;;;;;;;8.57;100.00;99188.75;6125864;23;19991;-85
2023/06/20 10:31:53;;;;;;;;;;;;;;;8.51;100.00;99174.03;6124114;23;19995;-84
2023/06/20 10:34:28;;;;;;;;;;;;;;;8.59;100.00;99176.34;6125670;23;19964;-84
2023/06/20 10:37:07;;;;;;;;;;;;;;;8.53;100.00;99182.75;6125734;23;19916;-84
2023/06/20 10:39:32;;;;;;;;;;;;;;;8.55;100.00;99183.53;6125864;23;19969;-85
2023/06/20 10:42:05;;;;;;;;;;;;;;;8.60;100.00;99185.97;6125542;23;19913;-85
2023/06/20 10:44:30;;;;;;;;;;;;;;;8.63;100.00;99177.91;6124558;23;19944;-85
2023/06/20 10:46:55;;;;;;;;;;;;;;;8.56;100.00;99177.34;6124093;23;20325;-84
2023/06/20 10:49:21;;;;;;;;;;;;;;;8.56;100.00;99181.78;6125478;23;19948;-84
2023/06/20 10:51:46;;;;;;;;;;;;;;;8.62;100.00;99182.34;6124235;23;20044;-84
2023/06/20 10:54:12;;;;;;;;;;;;;;;8.56;100.00;99181.78;6125511;23;19941;-84
2023/06/20 10:56:37;;;;;;;;;;;;;;;8.58;100.00;99186.03;6125646;23;19917;-85
2023/06/20 10:59:15;;;;;;;;;;;;;;;8.58;100.00;99174.63;6123609;23;19913;-85
2023/06/20 11:01:44;;;;;;;;;;;;;;;8.66;100.00;99183.94;6122339;23;20214;-85
2023/06/20 11:04:11;;;;;;;;;;;;;;;8.60;100.00;99167.47;6125454;23;19921;-85
2023/06/20 11:06:36;;;;;;;;;;;;;;;8.60;100.00;99173.66;6125563;23;19913;-84
2023/06/20 11:09:02;;;;;;;;;;;;;;;8.64;100.00;99175.22;6125535;23;19921;-84
2023/06/20 11:11:34;;;;;;;;;;;;;;;8.68;100.00;99168.88;6123752;23;19917;-84
2023/06/20 11:14:15;;;;;;;;;;;;;;;8.60;100.00;99165.72;6123989;23;19916;-84
2023/06/20 11:16:41;;;;;;;;;;;;;;;8.62;100.00;99163.88;6124010;23;20226;-84
2023/06/20 11:19:06;;;;;;;;;;;;;;;8.66;100.00;99165.44;6125582;23;19913;-84
2023/06/20 11:21:32;;;;;;;;;;;;;;;8.59;100.00;99157.88;6125344;23;20351;-84
2023/06/20 11:24:01;;;;;;;;;;;;;;;8.59;100.00;99163.16;6125392;23;19913;-85
2023/06/20 11:26:27;;;;;;;;;;;;;;;8.54;100.00;99161.56;6099627;23;19968;-84
2023/06/20 11:28:57;;;;;;;;;;;;;;;8.56;100.00;99156.22;6125454;23;19917;-84
2023/06/20 11:31:22;;;;;;;;;;;;;;;8.55;100.00;99159.75;6097762;23;19913;-84
2023/06/20 11:33:47;;;;;;;;;;;;;;;8.58;100.00;99143.78;6125825;23;20236;-84
2023/06/20 11:36:15;;;;;;;;;;;;;;;8.54;100.00;99135.16;6125331;23;19920;-85
2023/06/20 11:38:40;;;;;;;;;;;;;;;8.50;100.00;99130.94;6125272;23;20475;-85
2023/06/20 11:41:07;;;;;;;;;;;;;;;8.59;100.00;99129.66;6125380;23;19912;-84
2023/06/20 11:43:40;;;;;;;;;;;;;;;8.52;100.00;99122.94;6125582;23;19924;-84
2023/06/20 11:46:06;;;;;;;;;;;;;;;8.51;100.00;99129.16;6123771;23;19944;-84
2023/06/20 11:48:31;;;;;;;;;;;;;;;8.58;100.00;99127.09;6125278;23;19921;-84
2023/06/20 11:51:01;;;;;;;;;;;;;;;8.53;100.00;99128.16;6125299;23;19920;-84
2023/06/20 11:53:29;;;;;;;;;;;;;;;8.58;100.00;99113.88;6125235;23;19913;-83
2023/06/20 11:56:02;;;;;;;;;;;;;;;8.57;100.00;99110.41;6123749;23;19912;-84
2023/06/20 11:58:29;;;;;;;;;;;;;;;8.52;100.00;99110.59;6125259;23;19984;-84
2023/06/20 12:01:02;;;;;;;;;;;;;;;8.60;100.00;99109.38;6074130;23;19913;-86
2023/06/20 12:03:27;;;;;;;;;;;;;;;8.53;100.00;99109.66;6124879;23;19917;-85
2023/06/20 12:05:56;;;;;;;;;;;;;;;8.57;100.00;99105.13;6125210;23;20032;-84
2023/06/20 12:08:21;;;;;;;;;;;;;;;8.60;100.00;99114.66;6125139;23;19944;-84
2023/06/20 12:10:48;;;;;;;;;;;;;;;8.53;100.00;99111.44;6125186;23;19920;-84
2023/06/20 12:13:15;;;;;;;;;;;;;;;8.54;100.00;99124.59;6125171;23;19917;-84
2023/06/20 12:15:40;;;;;;;;;;;;;;;8.54;100.00;99108.75;6126339;23;19995;-85
2023/06/20 12:18:06;;;;;;;;;;;;;;;8.50;100.00;99106.31;6125189;23;19913;-84
2023/06/20 12:20:31;;;;;;;;;;;;;;;8.54;100.00;99106.09;6125367;23;19932;-85
2023/06/20 12:22:57;;;;;;;;;;;;;;;8.58;100.00;99105.97;6125358;23;19917;-87
2023/06/20 12:25:23;;;;;;;;;;;;;;;8.61;100.00;99106.69;6125392;23;19920;-85
2023/06/20 12:27:49;;;;;;;;;;;;;;;8.58;100.00;99098.91;6125462;23;19913;-85
2023/06/20 12:30:15;;;;;;;;;;;;;;;8.60;100.00;99096.19;6125426;23;19917;-85
2023/06/20 12:32:40;;;;;;;;;;;;;;;8.64;100.00;99101.25;6123744;23;20249;-84
2023/06/20 12:35:05;;;;;;;;;;;;;;;8.62;100.00;99102.28;6125706;23;19995;-84
2023/06/20 12:37:30;;;;;;;;;;;;;;;8.68;100.00;99099.31;6125348;23;19921;-85
2023/06/20 12:39:56;;;;;;;;;;;;;;;8.67;100.00;99105.56;6127017;23;19924;-84
2023/06/20 12:42:21;;;;;;;;;;;;;;;8.65;100.00;99102.97;6127193;23;20203;-86
2023/06/20 12:44:46;;;;;;;;;;;;;;;8.58;100.00;99101.53;6126918;23;19913;-84
2023/06/20 12:47:12;;;;;;;;;;;;;;;8.56;100.00;99098.13;6125219;23;20502;-85
2023/06/20 12:49:37;;;;;;;;;;;;;;;8.53;100.00;99087.69;6126718;23;19921;-85
2023/06/20 12:52:02;;;;;;;;;;;;;;;8.63;100.00;99085.47;6126871;23;19913;-85
2023/06/20 12:54:28;;;;;;;;;;;;;;;8.70;100.00;99087.78;6126884;23;20318;-85
2023/06/20 12:56:53;;;;;;;;;;;;;;;8.71;100.00;99078.94;6126847;23;19913;-85
2023/06/20 12:59:18;;;;;;;;;;;;;;;8.61;100.00;99079.41;6126699;23;19948;-85
2023/06/20 13:01:44;;;;;;;;;;;;;;;8.63;100.00;99088.13;6124874;23;20008;-85
2023/06/20 13:04:09;;;;;;;;;;;;;;;8.59;100.00;99086.56;6126664;23;19984;-86
2023/06/20 13:06:35;;;;;;;;;;;;;;;8.58;100.00;99084.84;6126702;23;19920;-86
2023/06/20 13:09:00;;;;;;;;;;;;;;;8.62;100.00;99081.16;6100681;23;19913;-87
2023/06/20 13:11:26;;;;;;;;;;;;;;;8.57;100.00;99077.84;6126512;23;19975;-85
2023/06/20 13:13:51;;;;;;;;;;;;;;;8.58;100.00;99071.63;6125069;23;20009;-85
2023/06/20 13:16:16;;;;;;;;;;;;;;;8.59;100.00;99071.56;6125128;23;19992;-85
2023/06/20 13:18:42;;;;;;;;;;;;;;;8.65;100.00;99073.09;6126353;23;19913;-85
2023/06/20 13:21:07;;;;;;;;;;;;;;;8.64;100.00;99077.50;6126660;23;19924;-85
2023/06/20 13:23:32;;;;;;;;;;;;;;;8.59;100.00;99086.56;6126247;23;20245;-85
2023/06/20 13:25:57;;;;;;;;;;;;;;;8.63;100.00;99096.03;6125980;23;19917;-85
2023/06/20 13:28:23;;;;;;;;;;;;;;;8.57;100.00;99101.59;6100469;23;19959;-86
2023/06/20 13:30:48;;;;;;;;;;;;;;;8.53;100.00;99092.97;6124893;23;19917;-85
2023/06/20 13:33:13;;;;;;;;;;;;;;;8.58;100.00;99090.97;6126319;23;19952;-85
2023/06/20 13:35:39;;;;;;;;;;;;;;;8.59;100.00;99086.56;6100746;23;19921;-85
2023/06/20 13:38:07;;;;;;;;;;;;;;;8.58;100.00;99076.91;6126437;23;19913;-85
2023/06/20 13:40:32;;;;;;;;;;;;;;;8.60;100.00;99078.56;6100289;23;19917;-85
2023/06/20 13:42:57;;;;;;;;;;;;;;;8.60;100.00;99080.34;6100324;23;20249;-85
2023/06/20 13:45:23;;;;;;;;;;;;;;;8.63;100.00;99081.09;6126252;23;20244;-84
2023/06/20 13:47:48;;;;;;;;;;;;;;;8.59;100.00;99081.28;6124702;23;19915;-85
2023/06/20 13:50:14;;;;;;;;;;;;;;;8.60;100.00;99086.50;6126459;23;20233;-85
2023/06/20 13:52:39;;;;;;;;;;;;;;;8.58;100.00;99092.75;6126241;23;19967;-85
2023/06/20 13:55:05;;;;;;;;;;;;;;;8.58;100.00;99075.13;6126160;23;19909;-85
2023/06/20 13:57:30;;;;;;;;;;;;;;;8.61;100.00;99079.41;6126130;23;20270;-86
2023/06/20 13:59:56;;;;;;;;;;;;;;;8.54;100.00;99079.69;6126084;23;19956;-86
2023/06/20 14:02:21;;;;;;;;;;;;;;;8.56;100.00;99070.88;6124183;23;19925;-85
2023/06/20 14:04:47;;;;;;;;;;;;;;;8.60;100.00;99072.41;6126065;23;19933;-86
2023/06/20 14:07:12;;;;;;;;;;;;;;;8.59;100.00;99068.09;6126444;23;19912;-86
2023/06/20 14:09:38;;;;;;;;;;;;;;;8.58;100.00;99067.22;6126024;23;19917;-86
2023/06/20 14:12:03;;;;;;;;;;;;;;;8.60;100.00;99072.41;6125970;23;19913;-85
2023/06/20 14:14:29;;;;;;;;;;;;;;;8.68;100.00;99072.91;6125995;23;19913;-85
2023/06/20 14:16:55;;;;;;;;;;;;;;;8.64;100.00;99069.56;6124425;23;19917;-85
2023/06/20 14:19:20;;;;;;;;;;;;;;;8.63;100.00;99077.56;6125840;23;19918;-85
2023/06/20 14:21:46;;;;;;;;;;;;;;;8.62;100.00;99082.00;6125697;23;19996;-86
2023/06/20 14:24:11;;;;;;;;;;;;;;;8.54;100.00;99081.50;6126025;23;19996;-85
2023/06/20 14:26:37;;;;;;;;;;;;;;;8.54;100.00;99073.56;6125892;23;19913;-85
2023/06/20 14:29:02;;;;;;;;;;;;;;;8.58;100.00;99074.28;6125913;23;20396;-86
2023/06/20 14:31:28;;;;;;;;;;;;;;;8.59;100.00;99070.72;6124198;23;19920;-86
2023/06/20 14:33:53;;;;;;;;;;;;;;;8.53;100.00;99072.69;6125714;23;19971;-89
2023/06/20 14:36:18;;;;;;;;;;;;;;;8.45;100.00;99064.28;6124117;23;20326;-85
2023/06/20 14:38:47;;;;;;;;;;;;;;;8.55;100.00;99069.97;6124153;23;19932;-85
2023/06/20 14:41:13;;;;;;;;;;;;;;;8.60;100.00;99067.13;6124271;23;20361;-85
2023/06/20 14:43:38;;;;;;;;;;;;;;;8.59;100.00;99066.28;6124074;23;19928;-86
2023/06/20 14:46:03;;;;;;;;;;;;;;;8.50;100.00;99067.59;6122737;23;20545;-85
2023/06/20 14:48:28;;;;;;;;;;;;;;;8.60;100.00;99070.66;6123991;23;19929;-87
2023/06/20 14:50:54;;;;;;;;;;;;;;;8.50;100.00;99075.50;6124062;23;19917;-86
2023/06/20 14:53:19;;;;;;;;;;;;;;;8.54;100.00;99066.50;6119840;23;19924;-85
2023/06/20 14:55:45;;;;;;;;;;;;;;;8.57;100.00;99070.78;6125700;23;19917;-85
2023/06/20 14:58:10;;;;;;;;;;;;;;;8.62;100.00;99065.31;6125706;23;20322;-85
2023/06/20 15:00:35;;;;;;;;;;;;;;;8.66;100.00;99051.88;6124070;23;20012;-85
2023/06/20 15:03:00;;;;;;;;;;;;;;;8.63;100.00;99057.31;6123698;23;19921;-87
2023/06/20 15:05:25;;;;;;;;;;;;;;;8.61;100.00;99055.66;6124387;23;19920;-86
2023/06/20 15:07:51;;;;;;;;;;;;;;;8.75;100.00;99049.75;6125581;23;19921;-86
2023/06/20 15:10:16;;;;;;;;;;;;;;;8.75;100.00;99050.59;6125889;23;19917;-85
2023/06/20 15:12:41;;;;;;;;;;;;;;;8.70;100.00;99057.88;6123894;23;19964;-85
2023/06/20 15:15:07;;;;;;;;;;;;;;;8.69;100.00;99062.28;6124401;23;20310;-86
2023/06/20 15:17:33;;;;;;;;;;;;;;;8.69;100.00;99066.72;6122234;23;19913;-86
2023/06/20 15:19:58;;;;;;;;;;;;;;;8.63;100.00;99064.34;6124266;23;19959;-86
2023/06/20 15:22:23;;;;;;;;;;;;;;;8.67;100.00;99068.59;6099545;23;19920;-85
2023/06/20 15:24:48;;;;;;;;;;;;;;;8.76;100.00;99078.72;6125368;23;20329;-85
2023/06/20 15:27:14;;;;;;;;;;;;;;;8.58;100.00;99084.84;6124205;23;19920;-85
2023/06/20 15:29:39;;;;;;;;;;;;;;;8.65;100.00;99083.66;6123923;23;20289;-85
2023/06/20 15:32:04;;;;;;;;;;;;;;;8.62;100.00;99078.50;6122775;23;20283;-86
2023/06/20 15:34:31;;;;;;;;;;;;;;;8.63;100.00;99077.56;6125826;23;20388;-85
2023/06/20 15:36:56;;;;;;;;;;;;;;;8.71;100.00;99075.41;6123983;23;19913;-86
2023/06/20 15:39:22;;;;;;;;;;;;;;;8.59;100.00;99076.00;6124277;23;19968;-85
2023/06/20 15:41:47;;;;;;;;;;;;;;;8.69;100.00;99082.56;6124009;23;19913;-86
2023/06/20 15:44:13;;;;;;;;;;;;;;;8.69;100.00;99067.56;6123951;23;19913;-85
2023/06/20 15:46:38;;;;;;;;;;;;;;;8.61;100.00;99068.84;6122284;23;20359;-85
2023/06/20 15:49:04;;;;;;;;;;;;;;;8.55;100.00;99072.63;6120212;23;20285;-84
2023/06/20 15:51:29;;;;;;;;;;;;;;;8.63;100.00;99062.59;6125974;23;19931;-84
2023/06/20 15:53:55;;;;;;;;;;;;;;;8.61;100.00;99066.22;6126260;23;19992;-84
2023/06/20 15:56:21;;;;;;;;;;;;;;;8.57;100.00;99076.06;6121720;23;20233;-85
2023/06/20 15:58:47;;;;;;;;;;;;;;;8.62;100.00;99075.88;6125840;23;19936;-85
2023/06/20 16:01:12;;;;;;;;;;;;;;;8.65;100.00;99079.22;6124261;23;20325;-84
2023/06/20 16:03:38;;;;;;;;;;;;;;;8.56;100.00;99076.16;6125439;23;19917;-84
2023/06/20 16:06:03;;;;;;;;;;;;;;;8.64;100.00;99074.00;6125791;23;19917;-85
2023/06/20 16:08:28;;;;;;;;;;;;;;;8.60;100.00;99072.41;6126106;23;19952;-85
2023/06/20 16:10:54;;;;;;;;;;;;;;;8.57;100.00;99072.56;6125552;23;19920;-84
2023/06/20 16:13:19;;;;;;;;;;;;;;;8.62;100.00;99066.16;6125862;23;19920;-84
2023/06/20 16:15:44;;;;;;;;;;;;;;;8.66;100.00;99077.41;6100800;23;19913;-84
2023/06/20 16:18:10;;;;;;;;;;;;;;;8.75;100.00;99081.44;6126097;23;19987;-85
2023/06/20 16:20:35;;;;;;;;;;;;;;;8.69;100.00;99080.78;6125618;23;20249;-84
2023/06/20 16:23:00;;;;;;;;;;;;;;;8.69;100.00;99087.84;6125547;23;20000;-84
2023/06/20 16:25:25;;;;;;;;;;;;;;;8.68;100.00;99097.56;6128057;23;19968;-87
2023/06/20 16:27:51;;;;;;;;;;;;;;;8.80;100.00;99100.56;6125588;23;20366;-85
2023/06/20 16:30:17;;;;;;;;;;;;;;;8.72;100.00;99101.75;6125467;23;19913;-84
2023/06/20 16:32:42;;;;;;;;;;;;;;;11.72;100.00;99081.75;6125515;23;20309;-83
2023/06/20 16:35:08;;;;;;;;;;;;;;;9.61;100.00;99104.56;6101409;23;19929;-83
2023/06/20 16:37:35;;;;;;;;;;;;;;;9.16;100.00;99111.19;6127050;23;20366;-95
2023/06/20 16:40:03;;;;;;;;;;;;;;;8.99;100.00;99122.53;6127040;23;20230;-83
2023/06/20 16:42:28;;;;;;;;;;;;;;;8.87;100.00;99113.41;6125710;23;19996;-83
2023/06/20 16:44:54;;;;;;;;;;;;;;;8.81;100.00;99121.63;6125669;23;19940;-84
2023/06/20 16:47:19;;;;;;;;;;;;;;;8.78;100.00;99113.00;6125070;23;19913;-83
2023/06/20 16:49:45;;;;;;;;;;;;;;;8.78;100.00;99120.91;6125366;23;20377;-83
2023/06/20 16:52:10;;;;;;;;;;;;;;;8.72;100.00;99114.13;6127260;23;19917;-83
2023/06/20 16:54:35;;;;;;;;;;;;;;;8.64;100.00;99114.47;6126758;23;19920;-83
2023/06/20 16:57:00;;;;;;;;;;;;;;;8.67;100.00;99110.84;6126785;23;19945;-83
2023/06/20 16:59:26;;;;;;;;;;;;;;;8.67;100.00;99105.56;6126645;23;19913;-83
2023/06/20 17:01:51;;;;;;;;;;;;;;;8.64;100.00;99116.25;6124808;23;19932;-83
2023/06/20 17:04:16;;;;;;;;;;;;;;;8.60;100.00;99114.66;6126654;23;20385;-83
2023/06/20 17:06:44;;;;;;;;;;;;;;;8.60;100.00;99117.31;6100898;23;19917;-82
2023/06/20 17:09:09;;;;;;;;;;;;;;;8.58;100.00;99124.44;6127043;23;20332;-83
2023/06/20 17:11:34;;;;;;;;;;;;;;;8.53;100.00;99137.84;6126640;23;19959;-83
2023/06/20 17:14:00;;;;;;;;;;;;;;;8.50;100.00;99141.50;6126558;23;19913;-82
2023/06/20 17:16:25;;;;;;;;;;;;;;;8.46;100.00;99137.28;6124915;23;19916;-87
2023/06/20 17:18:50;;;;;;;;;;;;;;;8.47;100.00;99140.78;6125359;23;20352;-83
2023/06/20 17:21:15;;;;;;;;;;;;;;;8.45;100.00;99142.63;6126678;23;19924;-83
2023/06/20 17:23:41;;;;;;;;;;;;;;;8.46;100.00;99139.91;6126439;23;19932;-83
2023/06/20 17:26:06;;;;;;;;;;;;;;;8.44;100.00;99140.91;6126510;23;19963;-84
2023/06/20 17:28:32;;;;;;;;;;;;;;;8.41;100.00;99147.16;6125469;23;19913;-83
2023/06/20 17:30:58;;;;;;;;;;;;;;;8.41;100.00;99160.38;6124845;23;19995;-82
2023/06/20 17:33:23;;;;;;;;;;;;;;;8.40;100.00;99161.28;6126425;23;19913;-84
2023/06/20 17:35:49;;;;;;;;;;;;;;;8.46;100.00;99161.03;6126428;23;20333;-83
2023/06/20 17:38:14;;;;;;;;;;;;;;;8.38;100.00;99163.13;6125191;23;19968;-83
2023/06/20 17:40:39;;;;;;;;;;;;;;;8.43;100.00;99165.56;6126369;23;19916;-83
2023/06/20 17:43:04;;;;;;;;;;;;;;;8.34;100.00;99153.63;6126298;23;19952;-83
2023/06/20 17:45:30;;;;;;;;;;;;;;;8.34;100.00;99146.59;6126320;23;20360;-83
2023/06/20 17:47:57;;;;;;;;;;;;;;;8.34;100.00;99129.88;6124502;23;19987;-84
2023/06/20 17:50:23;;;;;;;;;;;;;;;8.33;100.00;99144.00;6126690;23;19916;-83
2023/06/20 17:52:48;;;;;;;;;;;;;;;8.35;100.00;99148.28;6126305;23;20345;-83
2023/06/20 17:55:13;;;;;;;;;;;;;;;8.33;100.00;99152.78;6126280;23;19920;-83
2023/06/20 17:57:38;;;;;;;;;;;;;;;8.29;100.00;99147.69;6126235;23;19928;-83
2023/06/20 18:00:05;;;;;;;;;;;;;;;8.29;100.00;99160.88;6124896;23;19968;-83
2023/06/20 18:02:30;;;;;;;;;;;;;;;8.33;100.00;99160.69;6124225;23;20353;-82
2023/06/20 18:04:55;;;;;;;;;;;;;;;8.33;100.00;99162.47;6126041;23;19913;-90
2023/06/20 18:07:21;;;;;;;;;;;;;;;8.33;100.00;99175.69;6124590;23;19937;-84
2023/06/20 18:09:46;;;;;;;;;;;;;;;8.31;100.00;99181.03;6126082;23;20322;-82
2023/06/20 18:12:11;;;;;;;;;;;;;;;8.34;100.00;99182.66;6125673;23;20356;-82
2023/06/20 18:14:36;;;;;;;;;;;;;;;8.31;100.00;99190.72;6126043;23;19959;-83
2023/06/20 18:17:02;;;;;;;;;;;;;;;8.31;100.00;99193.34;6124295;23;20392;-83
2023/06/20 18:19:28;;;;;;;;;;;;;;;8.31;100.00;99188.06;6126041;23;19952;-89
2023/06/20 18:21:54;;;;;;;;;;;;;;;8.30;100.00;99191.66;6124642;23;20035;-83
2023/06/20 18:24:19;;;;;;;;;;;;;;;8.31;100.00;99198.63;6125906;23;19944;-83
2023/06/20 18:26:44;;;;;;;;;;;;;;;8.29;100.00;99192.56;6125920;23;19913;-83
2023/06/20 18:29:10;;;;;;;;;;;;;;;8.34;100.00;99191.47;6125857;23;19917;-83
2023/06/20 18:31:35;;;;;;;;;;;;;;;8.31;100.00;99196.00;6124067;23;19940;-84
2023/06/20 18:34:00;;;;;;;;;;;;;;;8.34;100.00;99199.38;6125800;23;20293;-85
2023/06/20 18:36:25;;;;;;;;;;;;;;;8.32;100.00;99205.63;6124634;23;19913;-83
2023/06/20 18:38:51;;;;;;;;;;;;;;;8.36;100.00;99207.22;6124943;23;19952;-82
2023/06/20 18:41:16;;;;;;;;;;;;;;;8.34;100.00;99203.78;6124612;23;19912;-83
2023/06/20 18:43:41;;;;;;;;;;;;;;;8.34;100.00;99209.06;6125706;23;19921;-84
2023/06/20 18:46:06;;;;;;;;;;;;;;;8.34;100.00;99212.56;6124449;23;19952;-83
2023/06/20 18:48:32;;;;;;;;;;;;;;;8.36;100.00;99204.59;6125626;23;19948;-83
2023/06/20 18:50:57;;;;;;;;;;;;;;;8.34;100.00;99212.56;6125617;23;20241;-84
2023/06/20 18:53:23;;;;;;;;;;;;;;;8.40;100.00;99208.78;6125779;23;19944;-83
2023/06/20 18:55:49;;;;;;;;;;;;;;;8.39;100.00;99203.59;6099724;23;19920;-83
2023/06/20 18:58:14;;;;;;;;;;;;;;;8.36;100.00;99207.22;6126325;23;19912;-83
2023/06/20 19:00:40;;;;;;;;;;;;;;;8.40;100.00;99206.16;6124307;23;19979;-83
2023/06/20 19:03:13;;;;;;;;;;;;;;;8.37;100.00;99204.50;6123587;23;19921;-83
2023/06/20 19:05:38;;;;;;;;;;;;;;;8.42;100.00;99212.22;6125623;23;19920;-85
2023/06/20 19:08:04;;;;;;;;;;;;;;;8.37;100.00;99219.50;6124405;23;19921;-83
2023/06/20 19:10:32;;;;;;;;;;;;;;;8.44;100.00;99209.53;6125627;23;19917;-83
2023/06/20 19:12:58;;;;;;;;;;;;;;;8.41;100.00;99212.28;6125413;23;20218;-83
2023/06/20 19:15:23;;;;;;;;;;;;;;;8.41;100.00;99210.53;6125497;23;19917;-83
2023/06/20 19:17:48;;;;;;;;;;;;;;;8.42;100.00;99204.31;6123901;23;20218;-83
2023/06/20 19:20:14;;;;;;;;;;;;;;;8.41;100.00;99202.59;6075624;23;19924;-83
2023/06/20 19:22:39;;;;;;;;;;;;;;;8.41;100.00;99209.66;6099276;23;19913;-83
2023/06/20 19:25:04;;;;;;;;;;;;;;;8.39;100.00;99207.06;6125192;23;19917;-83
2023/06/20 19:27:30;;;;;;;;;;;;;;;8.38;100.00;99218.56;6125506;23;19936;-83
2023/06/20 19:29:55;;;;;;;;;;;;;;;8.39;100.00;99220.28;6125654;23;20413;-83
2023/06/20 19:32:20;;;;;;;;;;;;;;;8.41;100.00;99231.66;6123730;23;19959;-84
2023/06/20 19:34:46;;;;;;;;;;;;;;;8.35;100.00;99232.75;6125340;23;19924;-84
2023/06/20 19:37:11;;;;;;;;;;;;;;;8.39;100.00;99243.19;6125293;23;19996;-84
2023/06/20 19:39:36;;;;;;;;;;;;;;;8.35;100.00;99242.47;6125458;23;19992;-84
2023/06/20 19:42:01;;;;;;;;;;;;;;;8.37;100.00;99245.88;6125987;23;19917;-83
2023/06/20 19:44:27;;;;;;;;;;;;;;;8.38;100.00;99247.63;6125341;23;19939;-83
2023/06/20 19:46:52;;;;;;;;;;;;;;;8.37;100.00;99261.72;6123693;23;19995;-87
2023/06/20 19:49:17;;;;;;;;;;;;;;;8.35;100.00;99253.88;6125300;23;19923;-87
2023/06/20 19:51:44;;;;;;;;;;;;;;;8.35;100.00;99268.84;6125399;23;19920;-83
2023/06/20 19:54:09;;;;;;;;;;;;;;;8.36;100.00;99260.88;6125234;23;19920;-87
2023/06/20 19:56:35;;;;;;;;;;;;;;;8.39;100.00;99254.59;6125314;23;19913;-83
2023/06/20 19:59:00;;;;;;;;;;;;;;;8.37;100.00;99262.56;6125544;23;19948;-83
2023/06/20 20:01:27;;;;;;;;;;;;;;;8.34;100.00;99262.72;6123606;23;19913;-82
2023/06/20 20:03:53;;;;;;;;;;;;;;;8.39;100.00;99266.94;6125020;23;20257;-83
2023/06/20 20:06:18;;;;;;;;;;;;;;;8.36;100.00;99279.34;6125292;23;20293;-84
2023/06/20 20:08:43;;;;;;;;;;;;;;;8.36;100.00;99278.50;6125292;23;19913;-83
2023/06/20 20:11:09;;;;;;;;;;;;;;;8.32;100.00;99269.00;6123609;23;19917;-83
2023/06/20 20:13:34;;;;;;;;;;;;;;;8.32;100.00;99282.19;6125277;23;19913;-83
2023/06/20 20:15:59;;;;;;;;;;;;;;;8.32;100.00;99279.53;6123897;23;20317;-83
2023/06/20 20:18:25;;;;;;;;;;;;;;;8.34;100.00;99282.97;6125269;23;20330;-83
2023/06/20 20:20:50;;;;;;;;;;;;;;;8.31;100.00;99286.63;6123809;23;20316;-84
2023/06/20 20:23:15;;;;;;;;;;;;;;;8.30;100.00;99294.59;6125063;23;19913;-83
2023/06/20 20:25:41;;;;;;;;;;;;;;;8.35;100.00;99289.97;6125193;23;20036;-83
2023/06/20 20:28:06;;;;;;;;;;;;;;;8.31;100.00;99293.66;6099601;23;19909;-84
2023/06/20 20:30:32;;;;;;;;;;;;;;;8.34;100.00;99301.44;6125218;23;19995;-83
2023/06/20 20:32:57;;;;;;;;;;;;;;;8.34;100.00;99296.16;6123680;23;19917;-83
2023/06/20 20:35:24;;;;;;;;;;;;;;;8.35;100.00;99308.47;6126123;23;19912;-82
2023/06/20 20:37:49;;;;;;;;;;;;;;;8.35;100.00;99316.38;6127043;23;19944;-83
2023/06/20 20:40:15;;;;;;;;;;;;;;;8.32;100.00;99316.50;6126897;23;19909;-83
2023/06/20 20:42:40;;;;;;;;;;;;;;;8.34;100.00;99319.94;6126880;23;19947;-83